Hinesville, GA (31310)

5:56 PM EDT on April 18, 2015 (GMT -0400)
Elim / Davenport Acres - Long County | | Change Station
CLOSE
Current Station
Personal Weather Station
Location: Ludowici, GA
Elevation: 89 ft
Nearby Weather Stations

Elev 89 ft 31.79 °N, 81.69 °W | Updated 5 seconds ago

Mostly Cloudy
Mostly Cloudy
83.3 °F
Feels Like 89 °F
N
0.0
Wind Variable Wind from NNE
Gusts 0.0 mph

Today
High -- | Low -- °F
--% Chance of Precip.
Yesterday
High -- | Low -- °F
Precip. -- in
6:54 AM 7:57 PM
New Moon, 0% visible
Pressure 29.90 in
Visibility 10.0 miles
Clouds Mostly Cloudy 3500 ft
Mostly Cloudy 4400 ft
Heat Index 89 °F
Dew Point 72 °F
Humidity 69%
Rainfall 0.00 in
Snow Depth Not available.
UV 3 out of 12
Pollen 5.70 out of 12
Air Quality Not available.
Flu Activity Sporadic
METAR KLHW 182058Z AUTO 33005KT 10SM BKN035 BKN044 27/19 A2989 RMK AO2 SLP124 60001 T02720191 56018

More Conditions Fewer Conditions

Pressure 29.90 in
Visibility 10.0 miles
Clouds Mostly Cloudy 3500 ft
Mostly Cloudy 4400 ft
Heat Index 89 °F
Dew Point 72 °F
Humidity 69%
Rainfall 0.00 in
Snow Depth Not available.
UV 3 out of 12
Pollen 5.70 out of 12
Air Quality Not available.
Flu Activity Sporadic
METAR KLHW 182058Z AUTO 33005KT 10SM BKN035 BKN044 27/19 A2989 RMK AO2 SLP124 60001 T02720191 56018

More Conditions Fewer Conditions

10-Day Weather Forecast

Almanac

Astronomy

Apr. 18, 2015 Rise Set
Actual Time
Civil Twilight
Nautical Twilight
Astronomical Twilight
Moon
Length of Visible Light
Length of Day
Tomorrow will be .
, % of the Moon is Illuminated

Today's Extremes

State Highs State Lows

Community

WunderPhotos

Upload Photos

1,814,538 photos uploaded!

WunderBlogs® & News

Nearby

Air Quality

  Air Quality AQ Index Pollutant
Not available.

Snow Depth

Station Depth Elevation

Earthquake Activity

City Distance Mag. Time & Date
Minimum magnitude displayed is 2.5.

Coastal Water Temperatures

Place Temperature

Stations

Nearby Weather Stations

Station Location Temp. Windchill Dew Point Humidity Wind Precip. Elev Updated Type